Weather at Oscar Machado Zuluaga Airport

Public forecast

Using degrees Celsius for public forecast. Weather courtesy of forecast.io.

Current aviation weather report (METAR) for Oscar Machado Zuluaga Airport

Report is more than 6 hours old.

Retrieved 2021/06/27 20:03 UTC (1 year ago):

SVCS 272003Z AUTO 00000KT NCD 0/// Q////

Closest aviation forecast (TAF) to Oscar Machado Zuluaga Airport

Closest forecast is Simón Bolívar International Airport, 21.6 nm (39.9 km) NNW. Retrieved 2022/06/29 18:03 UTC (5 hours ago):

TAF SVMI 291600Z 2918/3018 09005KT 9999 BKN016 TX32/2918Z TN22/3007Z TEMPO 2916/2922 09005KT 9000 DZ BKN013